createdAt,value
2022-11-13T00:02:33.438Z,21.00
2022-11-13T00:05:18.805Z,21.50
2022-11-13T00:08:04.060Z,21.30
2022-11-13T00:10:49.141Z,22.13
2022-11-13T00:13:34.943Z,22.25
2022-11-13T00:16:21.064Z,21.75
2022-11-13T00:19:06.113Z,21.67
2022-11-13T00:21:50.914Z,21.98
2022-11-13T00:24:35.754Z,21.42
2022-11-13T00:27:20.770Z,21.98
2022-11-13T00:30:05.988Z,21.95
2022-11-13T00:32:50.899Z,22.90
2022-11-13T00:35:35.854Z,20.35
2022-11-13T00:38:20.763Z,19.85
2022-11-13T00:41:06.083Z,21.88
2022-11-13T00:43:51.474Z,21.60
2022-11-13T00:46:36.582Z,20.27
2022-11-13T00:49:21.404Z,20.40
2022-11-13T00:52:06.448Z,20.52
2022-11-13T00:54:51.114Z,19.67
2022-11-13T00:57:35.913Z,18.88
2022-11-13T01:00:20.968Z,17.95
2022-11-13T01:03:06.117Z,18.80
2022-11-13T01:05:51.310Z,19.65
2022-11-13T01:08:36.102Z,19.73
2022-11-13T01:11:23.990Z,18.63
2022-11-13T01:14:09.314Z,19.63
2022-11-13T01:16:54.138Z,18.25
2022-11-13T01:19:39.074Z,17.95
2022-11-13T01:22:23.981Z,18.27
2022-11-13T01:25:09.251Z,17.45
2022-11-13T01:27:55.326Z,18.13
2022-11-13T01:30:40.353Z,18.33
2022-11-13T01:33:25.244Z,18.55
2022-11-13T01:36:19.761Z,17.45
2022-11-13T01:39:04.617Z,17.15
2022-11-13T01:41:49.646Z,17.15
2022-11-13T01:44:46.939Z,17.77
2022-11-13T01:47:31.996Z,17.33
2022-11-13T01:50:17.223Z,18.05
2022-11-13T01:53:02.484Z,16.63
2022-11-13T01:55:48.030Z,17.15
2022-11-13T01:58:33.446Z,18.63
2022-11-13T02:01:18.602Z,17.00
2022-11-13T02:04:04.133Z,16.90
2022-11-13T02:06:52.282Z,17.42
2022-11-13T02:09:40.765Z,17.75
2022-11-13T02:12:33.093Z,17.58
2022-11-13T02:15:21.476Z,17.90
2022-11-13T02:18:06.990Z,18.65
2022-11-13T02:21:15.324Z,18.77
2022-11-13T02:24:12.125Z,18.42
2022-11-13T02:27:01.752Z,17.45
2022-11-13T02:29:47.088Z,17.55
2022-11-13T02:32:32.114Z,18.58
2022-11-13T02:35:24.394Z,18.42
2022-11-13T02:38:09.383Z,17.55
2022-11-13T02:40:54.396Z,17.23
2022-11-13T02:43:39.186Z,18.27
2022-11-13T02:46:24.070Z,18.48
2022-11-13T02:49:08.852Z,18.30
2022-11-13T02:51:53.704Z,18.33
2022-11-13T02:54:38.612Z,18.58
2022-11-13T02:57:23.448Z,18.83
2022-11-13T03:00:13.563Z,17.58
2022-11-13T03:02:59.268Z,19.00
2022-11-13T03:05:48.779Z,17.67
2022-11-13T03:08:34.758Z,18.88
2022-11-13T03:11:21.014Z,17.95
2022-11-13T03:14:05.741Z,17.98
2022-11-13T03:16:50.670Z,18.77
2022-11-13T03:19:35.472Z,17.42
2022-11-13T03:22:20.404Z,19.05
2022-11-13T03:25:10.157Z,19.75
2022-11-13T03:27:55.914Z,19.98
2022-11-13T03:30:40.714Z,19.05
2022-11-13T03:33:25.795Z,19.85
2022-11-13T03:36:10.670Z,19.38
2022-11-13T03:38:55.750Z,20.38
2022-11-13T03:41:40.589Z,20.45
2022-11-13T03:44:25.421Z,20.23
2022-11-13T03:47:10.170Z,19.80
2022-11-13T03:49:55.169Z,21.95
2022-11-13T03:52:39.938Z,20.75
2022-11-13T03:55:24.852Z,21.20
2022-11-13T03:58:10.247Z,20.73
2022-11-13T04:00:56.267Z,18.60
2022-11-13T04:03:41.347Z,19.13
2022-11-13T04:06:26.183Z,17.77
2022-11-13T04:09:11.206Z,18.48
2022-11-13T04:11:55.997Z,18.88
2022-11-13T04:14:40.716Z,17.92
2022-11-13T04:17:25.504Z,18.58
2022-11-13T04:20:11.110Z,20.10
2022-11-13T04:22:56.868Z,17.63
2022-11-13T04:25:41.903Z,18.67
2022-11-13T04:28:27.157Z,18.55
2022-11-13T04:31:12.596Z,20.25
2022-11-13T04:33:57.509Z,19.17
2022-11-13T04:36:42.406Z,19.02
2022-11-13T04:39:27.155Z,18.30
2022-11-13T04:42:12.378Z,17.95
2022-11-13T04:44:57.541Z,17.77
2022-11-13T04:47:43.636Z,18.65
2022-11-13T04:50:28.394Z,20.10
2022-11-13T04:53:13.313Z,19.67
2022-11-13T04:55:58.152Z,18.33
2022-11-13T04:58:43.189Z,17.67
2022-11-13T05:01:28.412Z,17.92
2022-11-13T05:04:14.857Z,18.00
2022-11-13T05:06:59.779Z,18.02
2022-11-13T05:09:45.081Z,16.45
2022-11-13T05:12:30.033Z,15.25
2022-11-13T05:15:14.919Z,15.20
2022-11-13T05:17:59.962Z,14.05
2022-11-13T05:20:44.951Z,16.17
2022-11-13T05:23:30.244Z,15.32
2022-11-13T05:26:15.578Z,14.98
2022-11-13T05:29:00.691Z,15.40
2022-11-13T05:31:46.592Z,16.50
2022-11-13T05:34:31.667Z,16.50
2022-11-13T05:37:16.497Z,15.85
2022-11-13T05:40:01.404Z,17.33
2022-11-13T05:42:46.183Z,16.40
2022-11-13T05:45:31.229Z,16.58
2022-11-13T05:48:15.868Z,15.73
2022-11-13T05:51:06.555Z,15.07
2022-11-13T05:53:53.458Z,13.88
2022-11-13T05:56:38.593Z,14.30
2022-11-13T05:59:23.352Z,13.48
2022-11-13T06:02:08.454Z,13.63
2022-11-13T06:04:56.505Z,15.13
2022-11-13T06:07:41.511Z,13.35
2022-11-13T06:10:26.374Z,12.80
2022-11-13T06:13:11.305Z,14.38
2022-11-13T06:16:05.130Z,13.98
2022-11-13T06:18:50.978Z,13.63
2022-11-13T06:21:38.843Z,14.43
2022-11-13T06:24:24.001Z,14.35
2022-11-13T06:27:09.168Z,13.95
2022-11-13T06:29:53.885Z,14.38
2022-11-13T06:32:38.906Z,13.10
2022-11-13T06:35:23.934Z,13.10
2022-11-13T06:38:09.257Z,13.43
2022-11-13T06:40:54.189Z,12.25
2022-11-13T06:43:39.366Z,12.95
2022-11-13T06:46:26.286Z,14.40
2022-11-13T06:49:11.409Z,13.68
2022-11-13T06:51:56.236Z,12.48
2022-11-13T06:54:41.037Z,12.60
2022-11-13T06:57:25.900Z,12.73
2022-11-13T07:00:11.993Z,11.43
2022-11-13T07:02:57.200Z,11.35
2022-11-13T07:05:42.042Z,12.15
2022-11-13T07:08:27.154Z,12.48
2022-11-13T07:11:15.755Z,12.35
2022-11-13T07:14:00.976Z,12.90
2022-11-13T07:17:08.110Z,11.05
2022-11-13T07:19:50.669Z,10.63
2022-11-13T07:22:35.649Z,10.68
2022-11-13T07:25:20.495Z,10.93
2022-11-13T07:28:05.477Z,11.23
2022-11-13T07:30:50.218Z,10.40
2022-11-13T07:33:35.131Z,11.63
2022-11-13T07:36:19.894Z,11.55
2022-11-13T07:39:04.739Z,12.00
2022-11-13T07:41:49.601Z,11.65
2022-11-13T07:44:53.506Z,11.23
2022-11-13T07:47:39.140Z,11.90
2022-11-13T07:50:24.248Z,12.32
2022-11-13T07:53:10.216Z,12.13
2022-11-13T07:55:55.249Z,11.15
2022-11-13T07:58:40.294Z,12.13
2022-11-13T08:01:25.623Z,11.90
2022-11-13T08:04:10.684Z,11.68
2022-11-13T08:06:55.974Z,12.25
2022-11-13T08:09:40.963Z,12.45
2022-11-13T08:12:25.961Z,13.00
2022-11-13T08:15:13.493Z,14.07
2022-11-13T08:18:00.732Z,12.45
2022-11-13T08:20:45.725Z,12.75
2022-11-13T08:23:31.147Z,14.15
2022-11-13T08:26:18.000Z,13.68
2022-11-13T08:29:03.514Z,13.07
2022-11-13T08:31:48.491Z,14.90
2022-11-13T08:34:33.870Z,14.75
2022-11-13T08:37:18.821Z,13.82
2022-11-13T08:40:04.108Z,14.75
2022-11-13T08:42:49.066Z,13.63
2022-11-13T08:45:34.028Z,13.88
2022-11-13T08:48:19.139Z,14.38
2022-11-13T08:51:04.816Z,13.50
2022-11-13T08:53:50.138Z,13.20
2022-11-13T08:56:34.938Z,13.43
2022-11-13T08:59:19.841Z,14.18
2022-11-13T09:02:05.127Z,13.13
2022-11-13T09:04:49.956Z,12.93
2022-11-13T09:07:34.870Z,14.30
2022-11-13T09:10:19.804Z,13.75
2022-11-13T09:13:05.878Z,13.93
2022-11-13T09:15:50.938Z,13.65
2022-11-13T09:18:35.903Z,13.63
2022-11-13T09:21:21.034Z,12.50
2022-11-13T09:24:06.260Z,11.40
2022-11-13T09:26:51.420Z,12.27
2022-11-13T09:29:36.210Z,12.40
2022-11-13T09:32:21.006Z,11.20
2022-11-13T09:35:06.018Z,11.50
2022-11-13T09:37:54.297Z,12.75
2022-11-13T09:41:12.603Z,13.02
2022-11-13T09:44:02.000Z,12.15
2022-11-13T09:47:09.371Z,11.82
2022-11-13T09:50:12.483Z,11.77
2022-11-13T09:52:57.369Z,11.13
2022-11-13T09:55:56.137Z,10.70
2022-11-13T09:58:54.279Z,9.38
2022-11-13T10:02:21.250Z,10.52
2022-11-13T10:05:21.811Z,10.07
2022-11-13T10:08:06.619Z,10.40
2022-11-13T10:11:21.114Z,11.15
2022-11-13T10:14:43.543Z,11.13
2022-11-13T10:17:35.892Z,11.32
2022-11-13T10:20:24.547Z,11.30
2022-11-13T10:23:19.778Z,11.80
2022-11-13T10:26:19.986Z,10.70
2022-11-13T10:29:19.183Z,10.52
2022-11-13T10:32:20.752Z,10.32
2022-11-13T10:35:05.621Z,10.18
2022-11-13T10:38:15.541Z,10.90
2022-11-13T10:41:25.007Z,11.57
2022-11-13T10:44:30.605Z,13.15
2022-11-13T10:47:42.484Z,12.65
2022-11-13T10:50:30.099Z,12.27
2022-11-13T10:53:17.298Z,12.52
2022-11-13T10:56:02.385Z,12.57
2022-11-13T10:58:59.949Z,11.43
2022-11-13T11:01:46.815Z,11.18
2022-11-13T11:04:31.746Z,10.43
2022-11-13T11:07:21.045Z,10.77
2022-11-13T11:10:34.586Z,11.95
2022-11-13T11:13:24.305Z,10.68
2022-11-13T11:16:14.355Z,10.75
2022-11-13T11:19:04.465Z,10.63
2022-11-13T11:21:53.735Z,11.23
2022-11-13T11:24:44.922Z,10.43
2022-11-13T11:27:56.123Z,11.52
2022-11-13T11:30:56.101Z,11.52
2022-11-13T11:33:47.294Z,13.32
2022-11-13T11:36:38.186Z,11.00
2022-11-13T11:39:42.031Z,10.87
2022-11-13T11:42:39.239Z,10.63
2022-11-13T11:45:27.264Z,10.90
2022-11-13T11:48:14.944Z,11.90
2022-11-13T11:51:22.117Z,10.93
2022-11-13T11:54:41.574Z,11.52
2022-11-13T11:57:38.974Z,11.40
2022-11-13T12:00:24.486Z,10.35
2022-11-13T12:03:40.832Z,10.27
2022-11-13T12:06:39.337Z,10.43
2022-11-13T12:09:29.957Z,8.45
2022-11-13T12:12:57.135Z,8.65
2022-11-13T12:16:01.939Z,9.30
2022-11-13T12:19:03.997Z,9.05
2022-11-13T12:25:01.609Z,8.07
2022-11-13T12:27:55.816Z,8.65
2022-11-13T12:31:01.722Z,8.55
2022-11-13T12:33:49.551Z,8.82
2022-11-13T12:36:35.180Z,9.23
2022-11-13T12:39:29.474Z,9.75
2022-11-13T12:42:23.050Z,8.63
2022-11-13T12:45:11.022Z,10.02
2022-11-13T12:47:56.039Z,9.57
2022-11-13T12:50:40.840Z,9.60
2022-11-13T12:53:31.661Z,10.70
2022-11-13T12:56:25.782Z,11.13
2022-11-13T12:59:31.834Z,11.13
2022-11-13T13:02:43.774Z,10.52
2022-11-13T13:05:40.836Z,10.25
2022-11-13T13:08:42.828Z,13.75
2022-11-13T13:11:36.977Z,13.02
2022-11-13T13:14:40.477Z,12.10
2022-11-13T13:17:25.338Z,11.40
2022-11-13T13:20:13.612Z,12.77
2022-11-13T13:22:59.998Z,11.90
2022-11-13T13:25:45.055Z,12.60
2022-11-13T13:28:31.431Z,11.95
2022-11-13T13:31:28.643Z,12.88
2022-11-13T13:34:22.646Z,12.77
2022-11-13T13:37:42.637Z,13.77
2022-11-13T13:40:36.712Z,20.20
2022-11-13T13:43:38.353Z,24.73
2022-11-13T13:46:27.594Z,19.20
2022-11-13T13:49:20.477Z,15.63
2022-11-13T13:52:05.422Z,20.92
2022-11-13T13:54:50.993Z,19.48
2022-11-13T13:57:41.994Z,20.75
2022-11-13T14:00:27.284Z,17.67
2022-11-13T14:03:20.186Z,25.95
2022-11-13T14:06:20.275Z,27.17
2022-11-13T14:09:18.525Z,29.75
2022-11-13T14:12:09.809Z,30.55
2022-11-13T14:14:55.027Z,18.08
2022-11-13T14:17:39.891Z,15.52
2022-11-13T14:20:24.992Z,14.40
2022-11-13T14:23:18.303Z,14.18
2022-11-13T14:26:05.577Z,15.20
2022-11-13T14:28:58.390Z,17.05
2022-11-13T14:31:43.466Z,16.95
2022-11-13T14:34:28.325Z,15.95
2022-11-13T14:37:28.356Z,15.65
2022-11-13T14:40:19.458Z,15.02
2022-11-13T14:43:07.690Z,15.75
2022-11-13T14:46:05.289Z,16.17
2022-11-13T14:48:55.310Z,16.35
2022-11-13T14:51:40.782Z,15.98
2022-11-13T14:54:53.300Z,14.52
2022-11-13T14:57:47.516Z,13.88
2022-11-13T15:00:35.539Z,15.10
2022-11-13T15:03:20.661Z,17.30
2022-11-13T15:06:14.468Z,18.25
2022-11-13T15:08:59.991Z,18.60
2022-11-13T15:11:44.931Z,18.83
2022-11-13T15:14:29.969Z,16.00
2022-11-13T15:17:19.266Z,17.98
2022-11-13T15:20:09.480Z,18.92
2022-11-13T15:22:55.438Z,18.42
2022-11-13T15:25:40.951Z,18.38
2022-11-13T15:28:25.903Z,17.55
2022-11-13T15:31:35.120Z,19.50
2022-11-13T15:34:20.463Z,18.45
2022-11-13T15:37:16.511Z,18.25
2022-11-13T15:40:02.486Z,18.27
2022-11-13T15:42:47.677Z,17.60
2022-11-13T15:45:32.915Z,17.70
2022-11-13T15:48:18.170Z,17.00
2022-11-13T15:51:03.133Z,16.50
2022-11-13T15:53:51.789Z,15.43
2022-11-13T15:56:37.207Z,13.68
2022-11-13T15:59:22.145Z,12.63
2022-11-13T16:02:09.210Z,12.15
2022-11-13T16:04:56.840Z,12.68
2022-11-13T16:07:42.472Z,12.10
2022-11-13T16:10:27.567Z,12.35
2022-11-13T16:13:12.345Z,11.88
2022-11-13T16:15:59.142Z,11.30
2022-11-13T16:18:44.030Z,11.20
2022-11-13T16:21:30.145Z,11.60
2022-11-13T16:24:15.210Z,11.32
2022-11-13T16:27:00.236Z,11.15
2022-11-13T16:29:45.107Z,10.75
2022-11-13T16:32:30.132Z,10.23
2022-11-13T16:35:16.677Z,11.93
2022-11-13T16:38:02.323Z,11.57
2022-11-13T16:40:47.100Z,12.13
2022-11-13T16:43:32.017Z,14.05
2022-11-13T16:46:29.924Z,14.00
2022-11-13T16:49:15.328Z,16.50
2022-11-13T16:52:00.122Z,15.48
2022-11-13T16:54:45.603Z,14.75
2022-11-13T16:57:30.624Z,17.25
2022-11-13T17:00:17.922Z,18.25
2022-11-13T17:03:03.134Z,22.50
2022-11-13T17:05:51.961Z,20.23
2022-11-13T17:08:36.699Z,21.27
2022-11-13T17:11:22.973Z,21.13
2022-11-13T17:14:10.270Z,20.63
2022-11-13T17:16:55.239Z,20.08
2022-11-13T17:19:40.742Z,20.05
2022-11-13T17:22:25.828Z,20.25
2022-11-13T17:25:10.712Z,19.10
2022-11-13T17:27:55.864Z,19.77
2022-11-13T17:30:41.079Z,19.63
2022-11-13T17:33:26.137Z,20.05
2022-11-13T17:36:11.473Z,15.65
2022-11-13T17:38:56.712Z,16.05
2022-11-13T17:41:41.734Z,14.18
2022-11-13T17:44:27.271Z,15.38
2022-11-13T17:47:12.750Z,15.23
2022-11-13T17:50:02.420Z,16.67
2022-11-13T17:52:50.676Z,14.40
2022-11-13T17:55:35.523Z,16.42
2022-11-13T17:58:20.488Z,16.92
2022-11-13T18:01:32.325Z,14.45
2022-11-13T18:04:17.813Z,16.40
2022-11-13T18:07:02.906Z,18.55
2022-11-13T18:09:48.022Z,18.85
2022-11-13T18:12:33.120Z,18.33
2022-11-13T18:15:18.421Z,19.63
2022-11-13T18:18:04.998Z,19.77
2022-11-13T18:20:50.145Z,23.10
2022-11-13T18:23:35.112Z,21.05
2022-11-13T18:26:19.885Z,24.63
2022-11-13T18:29:05.135Z,32.67
2022-11-13T18:31:50.017Z,29.08
2022-11-13T18:34:34.877Z,26.35
2022-11-13T18:37:20.230Z,25.10
2022-11-13T18:40:05.882Z,21.95
2022-11-13T18:42:51.235Z,22.95
2022-11-13T18:45:36.133Z,21.98
2022-11-13T18:48:21.030Z,22.17
2022-11-13T18:51:09.732Z,20.92
2022-11-13T18:53:55.473Z,21.20
2022-11-13T18:56:40.593Z,19.95
2022-11-13T18:59:25.888Z,20.95
2022-11-13T19:02:11.718Z,20.80
2022-11-13T19:04:56.730Z,20.77
2022-11-13T19:07:41.554Z,20.83
2022-11-13T19:10:26.409Z,20.02
2022-11-13T19:13:11.343Z,21.85
2022-11-13T19:15:56.111Z,20.70
2022-11-13T19:18:42.979Z,19.70
2022-11-13T19:21:30.723Z,18.90
2022-11-13T19:24:15.889Z,20.17
2022-11-13T19:27:01.006Z,20.27
2022-11-13T19:29:45.912Z,19.23
2022-11-13T19:32:30.894Z,20.85
2022-11-13T19:35:15.691Z,21.63
2022-11-13T19:38:00.572Z,20.15
2022-11-13T19:40:52.426Z,19.90
2022-11-13T19:43:39.986Z,19.10
2022-11-13T19:46:25.045Z,21.55
2022-11-13T19:49:10.153Z,21.13
2022-11-13T19:51:54.991Z,22.08
2022-11-13T19:54:39.924Z,25.80
2022-11-13T19:57:24.790Z,23.67
2022-11-13T20:00:10.454Z,23.55
2022-11-13T20:02:56.319Z,24.67
2022-11-13T20:05:42.131Z,25.85
2022-11-13T20:08:28.226Z,24.40
2022-11-13T20:11:13.986Z,26.08
2022-11-13T20:13:59.880Z,29.05
2022-11-13T20:16:44.818Z,30.23
2022-11-13T20:19:29.762Z,29.80
2022-11-13T20:22:14.805Z,30.48
2022-11-13T20:24:59.935Z,28.85
2022-11-13T20:27:47.495Z,29.55
2022-11-13T20:30:32.978Z,33.08
2022-11-13T20:33:22.418Z,33.70
2022-11-13T20:36:08.355Z,28.85
2022-11-13T20:38:55.826Z,28.05
2022-11-13T20:41:40.681Z,29.05
2022-11-13T20:44:25.535Z,30.80
2022-11-13T20:47:10.363Z,33.00
2022-11-13T20:49:55.337Z,29.70
2022-11-13T20:52:40.093Z,31.45
2022-11-13T20:55:25.023Z,31.20
2022-11-13T20:58:09.810Z,30.38
2022-11-13T21:01:04.866Z,36.00
2022-11-13T21:03:51.293Z,36.25
2022-11-13T21:06:36.419Z,37.53
2022-11-13T21:09:21.195Z,37.90
2022-11-13T21:12:06.356Z,37.20
2022-11-13T21:14:51.545Z,39.17
2022-11-13T21:17:36.354Z,42.67
2022-11-13T21:20:21.097Z,36.97
2022-11-13T21:23:05.944Z,37.17
2022-11-13T21:25:58.681Z,39.85
2022-11-13T21:28:44.502Z,42.20
2022-11-13T21:31:29.529Z,38.90
2022-11-13T21:34:14.564Z,39.72
2022-11-13T21:36:59.631Z,37.78
2022-11-13T21:39:44.390Z,39.00
2022-11-13T21:42:29.329Z,41.13
2022-11-13T21:45:14.354Z,39.35
2022-11-13T21:47:59.451Z,43.05
2022-11-13T21:50:44.155Z,42.75
2022-11-13T21:53:28.972Z,41.30
2022-11-13T21:56:15.842Z,38.28
2022-11-13T21:59:01.211Z,42.42
2022-11-13T22:01:46.276Z,37.65
2022-11-13T22:04:31.147Z,38.47
2022-11-13T22:07:15.944Z,43.40
2022-11-13T22:10:05.455Z,41.67
2022-11-13T22:12:53.099Z,43.25
2022-11-13T22:15:38.084Z,41.15
2022-11-13T22:18:23.138Z,42.55
2022-11-13T22:21:10.149Z,41.47
2022-11-13T22:23:55.868Z,41.17
2022-11-13T22:26:43.543Z,42.05
2022-11-13T22:29:28.504Z,45.13
2022-11-13T22:32:13.455Z,43.50
2022-11-13T22:34:58.294Z,46.00
2022-11-13T22:37:43.156Z,44.33
2022-11-13T22:40:27.765Z,43.88
2022-11-13T22:43:12.651Z,44.42
2022-11-13T22:46:01.920Z,44.90
2022-11-13T22:48:48.463Z,44.33
2022-11-13T22:51:36.715Z,46.08
2022-11-13T22:54:21.968Z,46.25
2022-11-13T22:57:06.766Z,44.75
2022-11-13T22:59:51.519Z,45.10
2022-11-13T23:02:36.316Z,46.70
2022-11-13T23:05:21.264Z,45.92
2022-11-13T23:08:06.222Z,48.67
2022-11-13T23:10:52.683Z,46.53
2022-11-13T23:13:41.286Z,50.30
2022-11-13T23:16:27.084Z,51.30
2022-11-13T23:19:12.367Z,50.15
2022-11-13T23:21:57.550Z,48.40
2022-11-13T23:24:42.260Z,52.67
2022-11-13T23:27:27.109Z,50.63
2022-11-13T23:30:12.030Z,53.00
2022-11-13T23:32:57.111Z,56.85
2022-11-13T23:35:42.738Z,57.83
2022-11-13T23:38:27.809Z,62.55
2022-11-13T23:41:13.032Z,60.13
2022-11-13T23:44:13.057Z,59.72
2022-11-13T23:46:58.380Z,66.10
2022-11-13T23:49:43.158Z,66.18
2022-11-13T23:52:27.924Z,63.53
2022-11-13T23:55:12.684Z,63.00
2022-11-13T23:57:58.965Z,64.82
